createdAt,value
2023-05-11T00:02:26.186Z,99119.50
2023-05-11T00:06:27.808Z,99115.16
2023-05-11T00:10:29.694Z,99111.28
2023-05-11T00:14:32.560Z,99115.09
2023-05-11T00:18:34.104Z,99112.84
2023-05-11T00:22:35.598Z,99105.59
2023-05-11T00:26:37.131Z,99103.81
2023-05-11T00:30:41.177Z,99108.94
2023-05-11T00:34:42.681Z,99105.59
2023-05-11T00:38:44.156Z,99104.75
2023-05-11T00:42:45.616Z,99103.56
2023-05-11T00:46:49.105Z,99111.47
2023-05-11T00:50:50.791Z,99112.88
2023-05-11T00:54:52.355Z,99114.78
2023-05-11T00:58:53.914Z,99111.09
2023-05-11T01:02:57.662Z,99108.94
2023-05-11T01:07:06.726Z,99106.13
2023-05-11T01:11:15.271Z,99107.38
2023-05-11T01:15:24.567Z,99106.47
2023-05-11T01:19:39.354Z,99107.09
2023-05-11T01:23:57.313Z,99100.00
2023-05-11T01:28:23.034Z,99117.41
2023-05-11T01:32:28.716Z,99108.16
2023-05-11T01:36:34.093Z,99111.47
2023-05-11T01:40:37.130Z,99111.22
2023-05-11T01:44:42.281Z,99113.00
2023-05-11T01:48:49.068Z,99106.50
2023-05-11T01:52:52.578Z,99108.66
2023-05-11T01:56:55.925Z,99118.03
2023-05-11T02:00:58.116Z,99107.47
2023-05-11T02:05:03.015Z,99098.69
2023-05-11T02:09:07.298Z,99096.91
2023-05-11T02:13:10.006Z,99091.38
2023-05-11T02:17:12.921Z,99099.75
2023-05-11T02:21:16.654Z,99096.09
2023-05-11T02:25:18.679Z,99098.91
2023-05-11T02:29:20.207Z,99095.47
2023-05-11T02:33:27.989Z,99086.59
2023-05-11T02:37:33.412Z,99089.25
2023-05-11T02:41:41.052Z,99092.50
2023-05-11T02:45:44.059Z,99092.31
2023-05-11T02:49:49.201Z,99093.75
2023-05-11T02:53:55.805Z,99091.03
2023-05-11T02:57:57.505Z,99091.34
2023-05-11T03:02:00.639Z,99088.34
2023-05-11T03:06:02.272Z,99092.28
2023-05-11T03:10:07.027Z,99095.63
2023-05-11T03:14:08.612Z,99099.63
2023-05-11T03:18:11.349Z,99092.25
2023-05-11T03:22:14.012Z,99092.38
2023-05-11T03:26:18.686Z,99093.53
2023-05-11T03:30:21.798Z,99087.09
2023-05-11T03:34:23.316Z,99096.97
2023-05-11T03:38:29.070Z,99087.75
2023-05-11T03:42:32.969Z,99093.31
2023-05-11T03:46:37.939Z,99094.13
2023-05-11T03:50:40.416Z,99094.44
2023-05-11T03:54:43.016Z,99094.34
2023-05-11T03:58:45.961Z,99090.09
2023-05-11T04:02:47.588Z,99090.78
2023-05-11T04:06:49.147Z,99089.16
2023-05-11T04:10:50.619Z,99083.53
2023-05-11T04:14:53.435Z,99096.97
2023-05-11T04:18:54.932Z,99085.44
2023-05-11T04:22:56.414Z,99084.84
2023-05-11T04:26:57.929Z,99093.06
2023-05-11T04:31:00.891Z,99093.66
2023-05-11T04:35:02.450Z,99089.31
2023-05-11T04:39:04.049Z,99096.16
2023-05-11T04:43:05.535Z,99099.78
2023-05-11T04:47:08.438Z,99099.56
2023-05-11T04:51:09.990Z,99100.47
2023-05-11T04:55:11.517Z,99109.97
2023-05-11T04:59:12.993Z,99111.16
2023-05-11T05:03:15.891Z,99110.78
2023-05-11T05:07:17.460Z,99111.38
2023-05-11T05:11:19.018Z,99113.63
2023-05-11T05:15:20.517Z,99112.00
2023-05-11T05:19:23.345Z,99115.91
2023-05-11T05:23:24.876Z,99117.06
2023-05-11T05:27:26.346Z,99118.81
2023-05-11T05:31:27.878Z,99127.09
2023-05-11T05:35:30.724Z,99122.16
2023-05-11T05:39:32.201Z,99126.00
2023-05-11T05:43:33.686Z,99121.63
2023-05-11T05:47:35.229Z,99132.13
2023-05-11T05:51:38.120Z,99138.72
2023-05-11T05:55:39.668Z,99135.97
2023-05-11T05:59:41.210Z,99134.31
2023-05-11T06:03:43.347Z,99142.00
2023-05-11T06:07:54.414Z,99135.41
2023-05-11T06:12:04.038Z,99139.75
2023-05-11T06:16:05.797Z,99131.41
2023-05-11T06:20:08.547Z,99140.72
2023-05-11T06:24:11.614Z,99142.88
2023-05-11T06:28:13.154Z,99142.84
2023-05-11T06:32:14.660Z,99150.00
2023-05-11T06:36:16.313Z,99142.84
2023-05-11T06:40:19.617Z,99148.31
2023-05-11T06:44:21.271Z,99138.44
2023-05-11T06:48:22.759Z,99141.38
2023-05-11T06:52:24.272Z,99137.25
2023-05-11T06:56:27.125Z,99137.97
2023-05-11T07:00:28.602Z,99142.09
2023-05-11T07:04:30.228Z,99134.41
2023-05-11T07:08:31.777Z,99140.53
2023-05-11T07:12:34.631Z,99136.56
2023-05-11T07:16:36.235Z,99145.88
2023-05-11T07:20:41.224Z,99139.69
2023-05-11T07:24:43.322Z,99148.94
2023-05-11T07:28:46.184Z,99148.78
2023-05-11T07:32:48.508Z,99152.06
2023-05-11T07:36:50.969Z,99147.81
2023-05-11T07:40:52.494Z,99147.94
2023-05-11T07:44:55.334Z,99156.41
2023-05-11T07:49:11.309Z,99147.13
2023-05-11T07:53:17.063Z,99147.50
2023-05-11T07:57:19.257Z,99147.84
2023-05-11T08:01:22.291Z,99147.75
2023-05-11T08:05:23.824Z,99154.81
2023-05-11T08:09:25.434Z,99161.44
2023-05-11T08:13:27.121Z,99156.34
2023-05-11T08:17:30.311Z,99157.78
2023-05-11T08:21:31.858Z,99170.66
2023-05-11T08:25:33.384Z,99157.97
2023-05-11T08:29:34.907Z,99161.22
2023-05-11T08:33:38.871Z,99168.41
2023-05-11T08:37:40.654Z,99156.38
2023-05-11T08:41:43.078Z,99159.97
2023-05-11T08:45:46.086Z,99160.22
2023-05-11T08:49:50.322Z,99161.94
2023-05-11T08:53:52.051Z,99159.97
2023-05-11T08:57:55.717Z,99167.28
2023-05-11T09:01:58.254Z,99162.56
2023-05-11T09:06:04.560Z,99175.00
2023-05-11T09:10:07.342Z,99160.50
2023-05-11T09:14:08.957Z,99160.72
2023-05-11T09:18:10.464Z,99155.41
2023-05-11T09:22:13.338Z,99168.75
2023-05-11T09:26:15.123Z,99157.03
2023-05-11T09:34:23.617Z,99156.81
2023-05-11T09:38:26.484Z,99158.81
2023-05-11T09:42:29.909Z,99156.81
2023-05-11T09:46:31.475Z,99145.16
2023-05-11T09:50:33.332Z,99147.94
2023-05-11T09:54:40.988Z,99155.66
2023-05-11T09:58:50.970Z,99157.09
2023-05-11T10:03:04.079Z,99147.75
2023-05-11T10:07:05.745Z,99149.41
2023-05-11T10:11:08.846Z,99147.97
2023-05-11T10:15:11.325Z,99139.69
2023-05-11T10:19:13.301Z,99137.44
2023-05-11T10:23:18.298Z,99128.34
2023-05-11T10:27:21.738Z,99133.56
2023-05-11T10:31:24.217Z,99143.16
2023-05-11T10:35:26.484Z,99139.22
2023-05-11T10:39:28.879Z,99133.09
2023-05-11T10:43:49.810Z,99122.91
2023-05-11T10:48:30.479Z,99134.59
2023-05-11T10:52:41.545Z,99123.78
2023-05-11T10:57:02.480Z,99132.81
2023-05-11T11:01:30.877Z,99132.97
2023-05-11T11:05:33.463Z,99143.88
2023-05-11T11:09:52.852Z,99145.88
2023-05-11T11:13:58.161Z,99145.22
2023-05-11T11:18:20.617Z,99141.88
2023-05-11T11:22:44.201Z,99144.97
2023-05-11T11:26:47.589Z,99142.06
2023-05-11T11:31:09.169Z,99141.09
2023-05-11T11:35:40.432Z,99143.16
2023-05-11T11:39:53.416Z,99145.16
2023-05-11T11:43:54.964Z,99140.22
2023-05-11T11:48:10.769Z,99138.25
2023-05-11T11:52:13.346Z,99144.00
2023-05-11T11:56:46.353Z,99141.44
2023-05-11T12:00:48.005Z,99140.84
2023-05-11T12:04:57.346Z,99132.38
2023-05-11T12:08:58.989Z,99141.81
2023-05-11T12:13:02.134Z,99147.72
2023-05-11T12:17:08.455Z,99159.69
2023-05-11T12:21:19.304Z,99154.00
2023-05-11T12:25:21.384Z,99150.63
2023-05-11T12:29:24.769Z,99162.75
2023-05-11T12:33:26.302Z,99158.88
2023-05-11T12:37:28.553Z,99163.38
2023-05-11T12:41:30.086Z,99160.16
2023-05-11T12:45:33.071Z,99161.72
2023-05-11T12:49:34.644Z,99170.06
2023-05-11T12:53:36.348Z,99166.47
2023-05-11T12:57:39.288Z,99172.66
2023-05-11T13:01:42.233Z,99180.59
2023-05-11T13:05:43.842Z,99174.31
2023-05-11T13:09:56.048Z,99177.31
2023-05-11T13:13:57.557Z,99178.81
2023-05-11T13:18:02.203Z,99170.19
2023-05-11T13:22:04.136Z,99172.03
2023-05-11T13:26:05.666Z,99170.00
2023-05-11T13:30:08.339Z,99171.25
2023-05-11T13:34:11.214Z,99162.31
2023-05-11T13:38:12.934Z,99154.81
2023-05-11T13:42:14.454Z,99155.53
2023-05-11T13:46:15.942Z,99159.94
2023-05-11T13:50:18.776Z,99153.00
2023-05-11T13:54:20.246Z,99146.53
2023-05-11T13:58:21.754Z,99148.38
2023-05-11T14:02:23.292Z,99145.72
2023-05-11T14:06:26.220Z,99145.75
2023-05-11T14:10:27.738Z,99140.34
2023-05-11T14:14:29.238Z,99134.13
2023-05-11T14:18:30.787Z,99139.16
2023-05-11T14:22:33.722Z,99129.91
2023-05-11T14:26:35.289Z,99127.06
2023-05-11T14:30:36.825Z,99129.50
2023-05-11T14:34:38.354Z,99125.28
2023-05-11T14:38:41.195Z,99118.88
2023-05-11T14:42:42.684Z,99126.75
2023-05-11T14:46:44.315Z,99129.09
2023-05-11T14:50:45.923Z,99119.25
2023-05-11T14:54:48.749Z,99111.47
2023-05-11T14:58:50.274Z,99117.78
2023-05-11T15:02:51.981Z,99116.53
2023-05-11T15:06:53.804Z,99124.88
2023-05-11T15:10:56.666Z,99129.72
2023-05-11T15:14:58.151Z,99120.22
2023-05-11T15:18:59.764Z,99121.09
2023-05-11T15:23:01.354Z,99133.53
2023-05-11T15:27:04.543Z,99129.25
2023-05-11T15:31:06.067Z,99137.94
2023-05-11T15:35:08.372Z,99141.94
2023-05-11T15:39:09.860Z,99136.22
2023-05-11T15:43:12.696Z,99148.97
2023-05-11T15:47:14.167Z,99147.97
2023-05-11T15:51:15.665Z,99154.88
2023-05-11T15:55:17.419Z,99146.03
2023-05-11T15:59:20.617Z,99145.13
2023-05-11T16:03:22.283Z,99144.47
2023-05-11T16:07:23.856Z,99152.16
2023-05-11T16:11:25.338Z,99158.00
2023-05-11T16:15:28.232Z,99156.75
2023-05-11T16:19:29.713Z,99164.16
2023-05-11T16:23:31.276Z,99159.78
2023-05-11T16:27:32.743Z,99151.06
2023-05-11T16:31:35.641Z,99153.25
2023-05-11T16:35:37.144Z,99158.94
2023-05-11T16:39:38.702Z,99158.81
2023-05-11T16:43:40.191Z,99161.19
2023-05-11T16:47:43.121Z,99163.69
2023-05-11T16:51:44.670Z,99163.97
2023-05-11T16:55:46.170Z,99166.47
2023-05-11T16:59:47.653Z,99166.78
2023-05-11T17:03:50.646Z,99176.94
2023-05-11T17:07:52.187Z,99172.13
2023-05-11T17:11:53.686Z,99177.06
2023-05-11T17:15:55.342Z,99176.88
2023-05-11T17:19:58.215Z,99187.63
2023-05-11T17:23:59.699Z,99184.34
2023-05-11T17:28:01.191Z,99181.25
2023-05-11T17:32:02.819Z,99186.78
2023-05-11T17:36:06.642Z,99192.88
2023-05-11T17:40:09.015Z,99186.50
2023-05-11T17:44:10.500Z,99194.28
2023-05-11T17:48:12.015Z,99200.59
2023-05-11T17:52:15.182Z,99204.69
2023-05-11T17:56:16.779Z,99201.84
2023-05-11T18:00:19.072Z,99219.09
2023-05-11T18:04:20.701Z,99218.69
2023-05-11T18:08:23.538Z,99217.94
2023-05-11T18:12:25.027Z,99229.03
2023-05-11T18:16:26.567Z,99231.84
2023-05-11T18:20:28.144Z,99236.94
2023-05-11T18:24:31.051Z,99250.84
2023-05-11T18:28:32.525Z,99244.63
2023-05-11T18:32:34.082Z,99251.13
2023-05-11T18:36:35.598Z,99254.59
2023-05-11T18:40:38.429Z,99256.91
2023-05-11T18:44:39.925Z,99270.31
2023-05-11T18:48:41.419Z,99266.78
2023-05-11T18:52:42.898Z,99267.72
2023-05-11T18:56:45.727Z,99271.31
2023-05-11T19:00:47.355Z,99273.88
2023-05-11T19:04:48.919Z,99284.56
2023-05-11T19:08:50.397Z,99294.34
2023-05-11T19:12:53.235Z,99298.50
2023-05-11T19:16:54.817Z,99297.69
2023-05-11T19:20:56.315Z,99298.38
2023-05-11T19:24:57.935Z,99308.09
2023-05-11T19:29:00.783Z,99315.06
2023-05-11T19:33:02.295Z,99313.44
2023-05-11T19:37:03.920Z,99312.13
2023-05-11T19:41:05.400Z,99322.06
2023-05-11T19:45:09.102Z,99320.69
2023-05-11T19:49:10.619Z,99328.44
2023-05-11T19:53:12.113Z,99330.63
2023-05-11T19:57:13.928Z,99331.75
2023-05-11T20:01:16.812Z,99328.16
2023-05-11T20:05:18.392Z,99332.56
2023-05-11T20:09:19.913Z,99324.56
2023-05-11T20:13:22.189Z,99323.19
2023-05-11T20:17:25.186Z,99322.59
2023-05-11T20:21:26.988Z,99326.41
2023-05-11T20:25:28.764Z,99326.38
2023-05-11T20:29:30.232Z,99328.03
2023-05-11T20:37:37.469Z,99332.41
2023-05-11T20:41:38.939Z,99332.75
2023-05-11T20:45:40.446Z,99337.97
2023-05-11T20:49:43.635Z,99341.25
2023-05-11T20:53:45.151Z,99329.66
2023-05-11T20:57:46.660Z,99320.00
2023-05-11T21:01:48.120Z,99328.47
2023-05-11T21:05:50.943Z,99332.88
2023-05-11T21:09:52.444Z,99327.91
2023-05-11T21:13:53.925Z,99317.41
2023-05-11T21:17:55.433Z,99322.94
2023-05-11T21:21:58.279Z,99316.91
2023-05-11T21:25:59.763Z,99321.59
2023-05-11T21:30:01.289Z,99322.41
2023-05-11T21:34:02.822Z,99326.25
2023-05-11T21:38:05.730Z,99316.84
2023-05-11T21:42:07.418Z,99325.66
2023-05-11T21:46:08.961Z,99325.91
2023-05-11T21:50:11.485Z,99321.78
2023-05-11T21:54:14.393Z,99323.38
2023-05-11T21:58:16.072Z,99328.78
2023-05-11T22:02:17.594Z,99332.66
2023-05-11T22:06:19.105Z,99337.69
2023-05-11T22:10:22.036Z,99333.28
2023-05-11T22:14:23.510Z,99338.50
2023-05-11T22:18:25.154Z,99341.75
2023-05-11T22:22:26.703Z,99347.34
2023-05-11T22:26:29.570Z,99341.06
2023-05-11T22:30:31.334Z,99340.94
2023-05-11T22:34:32.835Z,99334.59
2023-05-11T22:38:34.329Z,99338.09
2023-05-11T22:42:37.880Z,99333.09
2023-05-11T22:46:39.378Z,99331.53
2023-05-11T22:50:41.154Z,99328.75
2023-05-11T22:54:42.648Z,99335.59
2023-05-11T22:58:45.588Z,99324.19
2023-05-11T23:02:47.167Z,99333.28
2023-05-11T23:06:48.722Z,99338.53
2023-05-11T23:10:50.242Z,99334.47
2023-05-11T23:14:53.082Z,99335.38
2023-05-11T23:18:54.679Z,99326.50
2023-05-11T23:22:56.236Z,99323.66
2023-05-11T23:26:57.785Z,99322.53
2023-05-11T23:31:00.769Z,99335.09
2023-05-11T23:35:02.254Z,99337.69
2023-05-11T23:39:04.002Z,99324.38
2023-05-11T23:43:05.534Z,99325.69
2023-05-11T23:47:08.434Z,99321.69
2023-05-11T23:51:09.964Z,99327.97
2023-05-11T23:55:12.067Z,99320.00
2023-05-11T23:59:14.610Z,99325.53
